• Join FlightAware (Why Join?)
  • Login
  • US Flag 
01:47AM EST


 

Airport Tracker/Info


-or-


 

Live Flight TrackerFlight Track Log ✈ N30483 ✈ 06-May-2014 ✈ KACZ - KWWD

Flight Track Log - Related Links

Times and Time Zones

All times are in EDT time to prevent confusion due to time zone crossing. See the N30483 flight status page for this flight to view local times or setup timezone preferences in your user account.

Time Position Orientation Groundspeed Altitude Reporting Facility
EDT Latitude Longitude Course Direction KTS MPH feet Rate Location/Type
12:53PM 34.7994 -78.2528 38° Northeast 110 127 3,500  Level Washington Center
12:54PM 34.8250 -78.2283 38° Northeast 109 125 3,500  Level Washington Center
12:55PM 34.8464 -78.2039 43° Northeast 108 124 3,500  Level Washington Center
12:56PM 34.8719 -78.1817 36° Northeast 111 128 3,500  Level Washington Center
12:57PM 34.8914 -78.1572 46° Northeast 107 123 3,500  Level Washington Center
12:58PM 34.9169 -78.1275 44° Northeast 110 127 3,500  Level Washington Center
12:59PM 34.9447 -78.1031 36° Northeast 110 127 3,500  Level Washington Center
01:00PM 34.9639 -78.0808 44° Northeast 103 119 3,500  Level Washington Center
01:01PM 34.9894 -78.0589 35° Northeast 108 124 3,500  Level Washington Center
01:02PM 35.0108 -78.0342 43° Northeast 107 123 3,500  Level Washington Center
01:03PM 35.0319 -78.0119 41° Northeast 110 127 3,500  Level Washington Center
01:04PM 35.0575 -77.9872 38° Northeast 111 128 3,500  Level Washington Center
01:05PM 35.0808 -77.9678 34° Northeast 107 123 3,500  Level Washington Center
01:06PM 35.1044 -77.9431 41° Northeast 109 125 3,500  Level Washington Center
01:07PM 35.1297 -77.9233 33° Northeast 108 124 3,500  Level Washington Center
01:08PM 35.1550 -77.9064 29° Northeast 105 121 3,500  Level Washington Center
01:09PM 35.1786 -77.8842 38° Northeast 102 117 3,500  Level Washington Center
01:10PM 35.2039 -77.8644 33° Northeast 106 122 3,500  Level Washington Center
01:11PM 35.2294 -77.8422 35° Northeast 112 129 3,500  Level Washington Center
01:12PM 35.2547 -77.8228 32° Northeast 106 122 3,500  Level Washington Center
01:13PM 35.2783 -77.7981 41° Northeast 104 120 3,500  Level Washington Center
01:14PM 35.3014 -77.7808 31° Northeast 107 123 3,500  Level Washington Center
01:15PM 35.3289 -77.7586 33° Northeast 104 120 3,500  Level Washington Center
01:16PM 35.3503 -77.7389 37° Northeast 105 121 3,500  Level Washington Center
01:17PM 35.3756 -77.7192 32° Northeast 109 125 3,500  Level Washington Center
01:18PM 35.4031 -77.6969 33° Northeast 111 128 3,500  Level Washington Center
01:19PM 35.4283 -77.6797 29° Northeast 109 125 3,500  Level Washington Center
01:20PM 35.4581 -77.6575 31° Northeast 104 120 3,500  Level Washington Center
01:21PM 35.4833 -77.6378 32° Northeast 111 128 3,500  Level Washington Center
01:22PM 35.5089 -77.6181 32° Northeast 112 129 3,500 -60 Level Washington Center
02:00PM 36.5378 -76.8250 30° Northeast 118 136 2,300 -60 Descending Washington Center
02:01PM 35.8417 -77.3477 35° Northeast  Level FlightAware Approximate
02:01PM 36.5797 -76.8075 19° North 115 132 2,200  Level Washington Center
02:02PM 35.8724 -77.3214 35° Northeast  Level FlightAware Approximate
02:02PM 36.6108 -76.8106 355° North 115 132 2,300  Level Washington Center
02:03PM 35.9044 -77.2979 28° Northeast  Level Estimated
02:03PM 36.6444 -76.8033 10° North 119 137 2,200  Level Washington Center
02:04PM 35.9369 -77.2751 30° Northeast  Level FlightAware Approximate
02:04PM 36.6675 -76.7831 35° Northeast 121 139 2,100  Level Washington Center
02:05PM 35.9693 -77.2522 30° Northeast  Level FlightAware Approximate
02:05PM 36.6950 -76.7603 34° Northeast 116 133 2,300  Level Washington Center
02:06PM 36.7222 -76.7347 37° Northeast 115 132 2,200  Descending Washington Center
02:07PM 36.7475 -76.7117 36° Northeast 115 132 2,300  Climbing Washington Center
02:08PM 36.7747 -76.6889 34° Northeast 112 129 2,300 60 Level Washington Center
02:09PM 36.7981 -76.6658 38° Northeast 106 122 2,500 60 Climbing Washington Center
02:10PM 36.8275 -76.6428 32° Northeast 114 131 2,500  Level Washington Center
02:11PM 36.8525 -76.6250 30° Northeast 112 129 2,600  Climbing Washington Center
02:12PM 36.8778 -76.6072 29° Northeast 117 135 2,600  Level Washington Center
02:13PM 36.9050 -76.5814 37° Northeast 114 131 2,600  Level Washington Center
02:14PM 36.9344 -76.5586 32° Northeast 118 136 2,600  Level Washington Center
02:15PM 36.9619 -76.5356 34° Northeast 114 131 2,600  Level Washington Center
02:16PM 36.9892 -76.5125 34° Northeast 114 131 2,600  Level Washington Center
02:17PM 37.0164 -76.4892 34° Northeast 118 136 2,600  Level Washington Center
02:18PM 37.0458 -76.4689 29° Northeast 116 133 2,600  Level Washington Center
02:20PM 37.0708 -76.4508 30° Northeast 115 132 2,600  Level Washington Center
02:21PM 37.0981 -76.4303 31° Northeast 117 135 2,600  Level Washington Center
02:22PM 37.1381 -76.4022 29° Northeast 119 137 2,600  Level Washington Center
02:22PM 37.1589 -76.3867 31° Northeast 119 137 2,600  Level Washington Center
02:24PM 37.1842 -76.3661 33° Northeast 118 136 2,600  Level Washington Center
02:25PM 37.2136 -76.3431 32° Northeast 119 137 2,600 120 Level Washington Center
02:26PM 37.2469 -76.3144 34° Northeast 114 131 3,000 360 Climbing Washington Center
02:27PM 37.2742 -76.2967 27° Northeast 115 132 3,400 240 Climbing Washington Center
02:28PM 37.2994 -76.2758 33° Northeast 117 135 3,500  Climbing Washington Center
02:29PM 37.3289 -76.2525 32° Northeast 118 136 3,500  Level Washington Center
02:30PM 37.3603 -76.2294 30° Northeast 116 133 3,500  Level Washington Center
02:31PM 37.3875 -76.2114 28° Northeast 116 133 3,500  Level Washington Center
02:33PM 37.4588 -76.1337 32° Northeast  Level FlightAware Approximate
02:40PM 37.7863 -75.8781 31° Northeast  Level FlightAware Approximate
02:41PM 37.8332 -75.8418 31° Northeast  Level FlightAware Approximate
02:42PM 37.8801 -75.8054 31° Northeast  Level FlightAware Approximate
02:43PM 37.9270 -75.7690 31° Northeast  Level FlightAware Approximate
02:44PM 37.9739 -75.7325 32° Northeast  Level FlightAware Approximate
02:45PM 38.0208 -75.6960 32° Northeast  Level FlightAware Approximate
02:46PM 38.0676 -75.6595 32° Northeast  Level FlightAware Approximate
02:47PM 38.1145 -75.6228 32° Northeast  Level FlightAware Approximate
02:48PM 38.1613 -75.5862 32° Northeast  Level FlightAware Approximate
02:49PM 38.2082 -75.5495 32° Northeast  Level FlightAware Approximate
02:50PM 38.2548 -75.5124 35° Northeast  Level FlightAware Approximate
02:51PM 38.3001 -75.4726 35° Northeast  Level FlightAware Approximate
02:52PM 38.3454 -75.4328 35° Northeast  Level FlightAware Approximate
02:53PM 38.3906 -75.3929 35° Northeast  Level FlightAware Approximate
02:54PM 38.4358 -75.3530 35° Northeast  Level FlightAware Approximate
02:55PM 38.4811 -75.3130 35° Northeast  Level FlightAware Approximate
02:56PM 38.5263 -75.2729 35° Northeast  Level FlightAware Approximate
02:57PM 38.5736 -75.2371 30° Northeast  Level FlightAware Approximate
02:58PM 38.6213 -75.2021 30° Northeast  Level FlightAware Approximate
02:59PM 38.6690 -75.1670 30° Northeast  Level FlightAware Approximate
03:00PM 38.7166 -75.1319 30° Northeast  Level FlightAware Approximate
03:01PM 38.7643 -75.0967 30° Northeast  Level FlightAware Approximate
03:02PM 38.8120 -75.0615 30° Northeast  Level FlightAware Approximate
03:03PM 38.8588 -75.0246 38° Northeast  Level FlightAware Approximate
03:04PM 38.9022 -74.9812 38° Northeast  Level FlightAware Approximate
03:05PM 38.9468 -74.9399 30° Northeast  Level FlightAware Approximate
03:06PM 38.9943 -74.9043 30° Northeast  Level FlightAware Approximate
03:07PM 39.0085 -74.9086 30° Northeast  Level Estimated
03:08PM 39.0085 -74.9086 30° Northeast  Level Estimated
03:09PM 39.0085 -74.9086 142° Southeast  Level Estimated
03:10PM 39.0085 -74.9086 30° Northeast  Level Estimated
03:11PM 39.0085 -74.9086 142° Southeast  Level Estimated
03:12PM 39.0085 -74.9086 30° Northeast  Level Estimated
03:13PM 39.0085 -74.9086 142° Southeast  Level Estimated
03:14PM 39.0085 -74.9086 30° Northeast  Level Estimated
03:15PM 39.0085 -74.9086 142° Southeast  Level Estimated
03:16PM 39.0085 -74.9086 30° Northeast  Level Estimated
03:17PM 39.0085 -74.9086 142° Southeast  Level Estimated
03:18PM 39.0085 -74.9086 30° Northeast  Level Estimated
03:19PM 39.0085 -74.9086 142° Southeast  Level Estimated
03:20PM 39.0085 -74.9086 30° Northeast  Level Estimated
03:21PM 39.0085 -74.9086 142° Southeast  Level Estimated
03:22PM 39.0085 -74.9086 30° Northeast  Level Estimated
03:23PM 39.0085 -74.9086 142° Southeast  Level Estimated
03:24PM 39.0085 -74.9086 30° Northeast  Level Estimated
03:25PM 39.0085 -74.9086 142° Southeast  Level Estimated
03:26PM 39.0085 -74.9086 30° Northeast  Level Estimated
03:27PM 39.0085 -74.9086 142° Southeast  Level Estimated
03:28PM 39.0085 -74.9086 30° Northeast  Level Estimated
03:29PM 39.0085 -74.9086 142° Southeast  Level Estimated
03:30PM 39.0085 -74.9086 30° Northeast  Level Estimated
03:31PM 39.0085 -74.9086 142° Southeast  Level Estimated
03:32PM 39.0085 -74.9086 30° Northeast  Level Estimated
03:33PM 39.0085 -74.9086 142° Southeast  Level Estimated
03:34PM 39.0085 -74.9086 30° Northeast  Level Estimated
03:35PM 39.0085 -74.9086 142° Southeast  Level Estimated
03:36PM 39.0085 -74.9086 30° Northeast  Level Estimated
03:37PM 39.0085 -74.9086 142° Southeast  Level Estimated
03:38PM 39.0085 -74.9086 30° Northeast  Level Estimated
03:39PM 39.0085 -74.9086 142° Southeast  Level Estimated
03:40PM 39.0085 -74.9086 30° Northeast  Level Estimated